sensor_id;sensor_type;location;lat;lon;timestamp;P1;durP1;ratioP1;P2;durP2;ratioP2
69678;SDS011;56915;52.046;4.854;2023-04-01T00:01:24;28.40;;;7.43;;
69678;SDS011;56915;52.046;4.854;2023-04-01T00:03:51;22.83;;;6.30;;
69678;SDS011;56915;52.046;4.854;2023-04-01T00:06:20;19.95;;;6.45;;
69678;SDS011;56915;52.046;4.854;2023-04-01T00:08:46;34.40;;;11.45;;
69678;SDS011;56915;52.046;4.854;2023-04-01T00:11:14;14.67;;;5.00;;
69678;SDS011;56915;52.046;4.854;2023-04-01T00:13:41;12.82;;;3.53;;
69678;SDS011;56915;52.046;4.854;2023-04-01T00:16:09;13.43;;;3.58;;
69678;SDS011;56915;52.046;4.854;2023-04-01T00:18:47;15.05;;;3.55;;
69678;SDS011;56915;52.046;4.854;2023-04-01T00:21:16;9.45;;;3.70;;
69678;SDS011;56915;52.046;4.854;2023-04-01T00:23:44;10.57;;;3.60;;
69678;SDS011;56915;52.046;4.854;2023-04-01T00:26:11;19.73;;;4.80;;
69678;SDS011;56915;52.046;4.854;2023-04-01T00:28:38;14.57;;;4.43;;
69678;SDS011;56915;52.046;4.854;2023-04-01T00:31:06;19.50;;;4.03;;
69678;SDS011;56915;52.046;4.854;2023-04-01T00:33:35;10.70;;;2.83;;
69678;SDS011;56915;52.046;4.854;2023-04-01T00:36:21;9.93;;;3.27;;
69678;SDS011;56915;52.046;4.854;2023-04-01T00:38:49;19.33;;;4.43;;
69678;SDS011;56915;52.046;4.854;2023-04-01T00:41:17;18.02;;;3.85;;
69678;SDS011;56915;52.046;4.854;2023-04-01T00:43:48;18.73;;;4.00;;
69678;SDS011;56915;52.046;4.854;2023-04-01T00:46:19;22.48;;;4.32;;
69678;SDS011;56915;52.046;4.854;2023-04-01T00:48:53;10.00;;;2.33;;
69678;SDS011;56915;52.046;4.854;2023-04-01T00:51:23;9.85;;;2.97;;
69678;SDS011;56915;52.046;4.854;2023-04-01T00:53:55;13.30;;;3.20;;
69678;SDS011;56915;52.046;4.854;2023-04-01T00:56:45;10.63;;;2.42;;
69678;SDS011;56915;52.046;4.854;2023-04-01T00:59:34;12.70;;;2.70;;
69678;SDS011;56915;52.046;4.854;2023-04-01T01:02:13;10.43;;;2.43;;
69678;SDS011;56915;52.046;4.854;2023-04-01T01:04:41;12.10;;;2.33;;
69678;SDS011;56915;52.046;4.854;2023-04-01T01:15:27;9.07;;;2.43;;
69678;SDS011;56915;52.046;4.854;2023-04-01T01:20:57;9.27;;;2.15;;
69678;SDS011;56915;52.046;4.854;2023-04-01T01:37:14;9.20;;;2.83;;
69678;SDS011;56915;52.046;4.854;2023-04-01T01:39:44;9.75;;;2.75;;
69678;SDS011;56915;52.046;4.854;2023-04-01T01:42:18;11.67;;;2.40;;
69678;SDS011;56915;52.046;4.854;2023-04-01T01:44:46;6.88;;;2.42;;
69678;SDS011;56915;52.046;4.854;2023-04-01T01:47:14;8.07;;;2.58;;
69678;SDS011;56915;52.046;4.854;2023-04-01T01:49:43;10.00;;;2.67;;
69678;SDS011;56915;52.046;4.854;2023-04-01T01:52:12;9.73;;;2.75;;
69678;SDS011;56915;52.046;4.854;2023-04-01T01:54:47;11.30;;;3.20;;
69678;SDS011;56915;52.046;4.854;2023-04-01T01:57:14;13.57;;;3.15;;
69678;SDS011;56915;52.046;4.854;2023-04-01T01:59:43;11.27;;;3.30;;
69678;SDS011;56915;52.046;4.854;2023-04-01T02:02:11;19.02;;;3.05;;
69678;SDS011;56915;52.046;4.854;2023-04-01T02:04:41;10.70;;;2.28;;
69678;SDS011;56915;52.046;4.854;2023-04-01T02:07:13;10.60;;;2.20;;
69678;SDS011;56915;52.046;4.854;2023-04-01T02:09:46;6.93;;;2.00;;
69678;SDS011;56915;52.046;4.854;2023-04-01T02:12:14;16.27;;;2.55;;
69678;SDS011;56915;52.046;4.854;2023-04-01T02:14:43;4.95;;;1.52;;
69678;SDS011;56915;52.046;4.854;2023-04-01T02:17:19;4.68;;;1.77;;
69678;SDS011;56915;52.046;4.854;2023-04-01T02:19:49;8.53;;;2.07;;
69678;SDS011;56915;52.046;4.854;2023-04-01T02:22:21;8.00;;;1.80;;
69678;SDS011;56915;52.046;4.854;2023-04-01T02:24:56;8.43;;;2.58;;
69678;SDS011;56915;52.046;4.854;2023-04-01T02:27:25;7.47;;;2.17;;
69678;SDS011;56915;52.046;4.854;2023-04-01T02:29:52;4.50;;;1.83;;
69678;SDS011;56915;52.046;4.854;2023-04-01T02:32:19;6.50;;;2.10;;
69678;SDS011;56915;52.046;4.854;2023-04-01T02:34:47;4.63;;;1.42;;
69678;SDS011;56915;52.046;4.854;2023-04-01T02:37:14;5.07;;;1.77;;
69678;SDS011;56915;52.046;4.854;2023-04-01T02:39:42;3.80;;;1.75;;
69678;SDS011;56915;52.046;4.854;2023-04-01T02:42:09;5.10;;;1.67;;
69678;SDS011;56915;52.046;4.854;2023-04-01T02:44:36;6.23;;;1.30;;
69678;SDS011;56915;52.046;4.854;2023-04-01T02:47:03;2.85;;;1.27;;
69678;SDS011;56915;52.046;4.854;2023-04-01T02:49:30;6.03;;;1.95;;
69678;SDS011;56915;52.046;4.854;2023-04-01T02:51:57;6.93;;;2.50;;
69678;SDS011;56915;52.046;4.854;2023-04-01T02:54:24;6.78;;;2.75;;
69678;SDS011;56915;52.046;4.854;2023-04-01T02:56:51;11.87;;;3.70;;
69678;SDS011;56915;52.046;4.854;2023-04-01T02:59:18;10.40;;;3.20;;
69678;SDS011;56915;52.046;4.854;2023-04-01T03:01:44;11.70;;;4.13;;
69678;SDS011;56915;52.046;4.854;2023-04-01T03:04:11;8.82;;;3.53;;
69678;SDS011;56915;52.046;4.854;2023-04-01T03:06:38;11.52;;;4.30;;
69678;SDS011;56915;52.046;4.854;2023-04-01T03:09:05;11.13;;;4.50;;
69678;SDS011;56915;52.046;4.854;2023-04-01T03:11:32;12.10;;;3.85;;
69678;SDS011;56915;52.046;4.854;2023-04-01T03:13:58;15.48;;;5.53;;
69678;SDS011;56915;52.046;4.854;2023-04-01T03:16:25;18.67;;;5.55;;
69678;SDS011;56915;52.046;4.854;2023-04-01T03:18:52;17.23;;;4.45;;
69678;SDS011;56915;52.046;4.854;2023-04-01T03:21:21;14.87;;;4.50;;
69678;SDS011;56915;52.046;4.854;2023-04-01T03:23:49;24.10;;;5.93;;
69678;SDS011;56915;52.046;4.854;2023-04-01T03:26:16;19.30;;;6.13;;
69678;SDS011;56915;52.046;4.854;2023-04-01T03:28:44;21.98;;;5.90;;
69678;SDS011;56915;52.046;4.854;2023-04-01T03:31:11;18.42;;;5.45;;
69678;SDS011;56915;52.046;4.854;2023-04-01T03:33:38;9.20;;;3.47;;
69678;SDS011;56915;52.046;4.854;2023-04-01T03:36:05;8.15;;;2.72;;
69678;SDS011;56915;52.046;4.854;2023-04-01T03:38:33;6.05;;;3.00;;
69678;SDS011;56915;52.046;4.854;2023-04-01T03:41:01;8.93;;;3.00;;
69678;SDS011;56915;52.046;4.854;2023-04-01T03:43:28;8.90;;;3.97;;
69678;SDS011;56915;52.046;4.854;2023-04-01T03:45:55;11.60;;;4.77;;
69678;SDS011;56915;52.046;4.854;2023-04-01T03:48:24;7.13;;;2.80;;
69678;SDS011;56915;52.046;4.854;2023-04-01T03:50:51;8.13;;;3.83;;
69678;SDS011;56915;52.046;4.854;2023-04-01T03:53:18;9.73;;;4.20;;
69678;SDS011;56915;52.046;4.854;2023-04-01T03:55:45;12.52;;;5.05;;
69678;SDS011;56915;52.046;4.854;2023-04-01T03:58:12;9.77;;;4.03;;
69678;SDS011;56915;52.046;4.854;2023-04-01T04:00:40;8.82;;;4.43;;
69678;SDS011;56915;52.046;4.854;2023-04-01T04:03:07;9.93;;;4.13;;
69678;SDS011;56915;52.046;4.854;2023-04-01T04:05:34;8.48;;;4.35;;
69678;SDS011;56915;52.046;4.854;2023-04-01T04:08:01;12.55;;;4.90;;
69678;SDS011;56915;52.046;4.854;2023-04-01T04:10:28;12.70;;;5.10;;
69678;SDS011;56915;52.046;4.854;2023-04-01T04:12:55;11.20;;;4.20;;
69678;SDS011;56915;52.046;4.854;2023-04-01T04:15:22;10.18;;;4.07;;
69678;SDS011;56915;52.046;4.854;2023-04-01T04:17:49;12.98;;;4.03;;
69678;SDS011;56915;52.046;4.854;2023-04-01T04:20:16;12.38;;;4.93;;
69678;SDS011;56915;52.046;4.854;2023-04-01T04:22:43;14.57;;;5.73;;
69678;SDS011;56915;52.046;4.854;2023-04-01T04:25:10;13.40;;;5.47;;
69678;SDS011;56915;52.046;4.854;2023-04-01T04:27:37;10.70;;;4.43;;
69678;SDS011;56915;52.046;4.854;2023-04-01T04:30:05;13.27;;;4.97;;
69678;SDS011;56915;52.046;4.854;2023-04-01T04:32:33;11.77;;;5.18;;
69678;SDS011;56915;52.046;4.854;2023-04-01T04:34:59;13.50;;;5.63;;
69678;SDS011;56915;52.046;4.854;2023-04-01T04:37:26;8.45;;;4.20;;
69678;SDS011;56915;52.046;4.854;2023-04-01T04:40:01;13.10;;;5.35;;
69678;SDS011;56915;52.046;4.854;2023-04-01T04:42:27;10.52;;;4.90;;
69678;SDS011;56915;52.046;4.854;2023-04-01T04:44:54;13.95;;;4.97;;
69678;SDS011;56915;52.046;4.854;2023-04-01T04:47:21;11.50;;;4.50;;
69678;SDS011;56915;52.046;4.854;2023-04-01T04:49:48;11.52;;;4.65;;
69678;SDS011;56915;52.046;4.854;2023-04-01T04:52:15;9.90;;;4.72;;
69678;SDS011;56915;52.046;4.854;2023-04-01T04:54:41;12.48;;;6.47;;
69678;SDS011;56915;52.046;4.854;2023-04-01T04:57:08;8.43;;;4.53;;
69678;SDS011;56915;52.046;4.854;2023-04-01T04:59:35;11.07;;;5.23;;
69678;SDS011;56915;52.046;4.854;2023-04-01T05:02:03;12.13;;;3.95;;
69678;SDS011;56915;52.046;4.854;2023-04-01T05:04:29;14.80;;;4.85;;
69678;SDS011;56915;52.046;4.854;2023-04-01T05:07:01;11.23;;;4.72;;
69678;SDS011;56915;52.046;4.854;2023-04-01T05:09:28;12.25;;;4.80;;
69678;SDS011;56915;52.046;4.854;2023-04-01T05:11:55;12.67;;;4.40;;
69678;SDS011;56915;52.046;4.854;2023-04-01T05:14:21;12.93;;;5.00;;
69678;SDS011;56915;52.046;4.854;2023-04-01T05:16:48;12.45;;;4.70;;
69678;SDS011;56915;52.046;4.854;2023-04-01T05:19:16;14.65;;;5.38;;
69678;SDS011;56915;52.046;4.854;2023-04-01T05:21:43;14.13;;;5.45;;
69678;SDS011;56915;52.046;4.854;2023-04-01T05:24:10;14.00;;;4.70;;
69678;SDS011;56915;52.046;4.854;2023-04-01T05:26:37;12.48;;;4.95;;
69678;SDS011;56915;52.046;4.854;2023-04-01T05:29:04;19.17;;;6.10;;
69678;SDS011;56915;52.046;4.854;2023-04-01T05:31:31;13.30;;;5.50;;
69678;SDS011;56915;52.046;4.854;2023-04-01T05:33:58;17.40;;;4.97;;
69678;SDS011;56915;52.046;4.854;2023-04-01T05:36:24;16.97;;;4.87;;
69678;SDS011;56915;52.046;4.854;2023-04-01T05:38:54;16.17;;;5.22;;
69678;SDS011;56915;52.046;4.854;2023-04-01T05:41:21;13.18;;;5.70;;
69678;SDS011;56915;52.046;4.854;2023-04-01T05:43:48;17.30;;;5.45;;
69678;SDS011;56915;52.046;4.854;2023-04-01T05:46:15;12.15;;;4.18;;
69678;SDS011;56915;52.046;4.854;2023-04-01T05:48:41;19.80;;;5.80;;
69678;SDS011;56915;52.046;4.854;2023-04-01T05:51:15;23.27;;;6.55;;
69678;SDS011;56915;52.046;4.854;2023-04-01T05:53:42;21.23;;;5.93;;
69678;SDS011;56915;52.046;4.854;2023-04-01T05:56:09;14.27;;;5.15;;
69678;SDS011;56915;52.046;4.854;2023-04-01T05:58:36;13.13;;;4.57;;
69678;SDS011;56915;52.046;4.854;2023-04-01T06:01:07;10.87;;;5.37;;
69678;SDS011;56915;52.046;4.854;2023-04-01T06:03:41;14.38;;;5.07;;
69678;SDS011;56915;52.046;4.854;2023-04-01T06:06:11;11.45;;;4.22;;
69678;SDS011;56915;52.046;4.854;2023-04-01T06:08:42;16.77;;;5.72;;
69678;SDS011;56915;52.046;4.854;2023-04-01T06:19:19;13.43;;;6.18;;
69678;SDS011;56915;52.046;4.854;2023-04-01T06:33:17;12.15;;;5.30;;
69678;SDS011;56915;52.046;4.854;2023-04-01T06:38:43;10.73;;;5.20;;
69678;SDS011;56915;52.046;4.854;2023-04-01T06:44:13;20.27;;;8.20;;
69678;SDS011;56915;52.046;4.854;2023-04-01T06:46:47;13.32;;;5.95;;
69678;SDS011;56915;52.046;4.854;2023-04-01T06:55:00;9.47;;;4.63;;
69678;SDS011;56915;52.046;4.854;2023-04-01T06:57:43;10.57;;;5.13;;
69678;SDS011;56915;52.046;4.854;2023-04-01T07:00:15;12.55;;;5.88;;
69678;SDS011;56915;52.046;4.854;2023-04-01T07:02:59;17.80;;;6.25;;
69678;SDS011;56915;52.046;4.854;2023-04-01T07:05:36;19.98;;;9.07;;
69678;SDS011;56915;52.046;4.854;2023-04-01T07:08:08;20.50;;;7.27;;
69678;SDS011;56915;52.046;4.854;2023-04-01T07:10:47;16.10;;;5.28;;
69678;SDS011;56915;52.046;4.854;2023-04-01T07:13:34;14.82;;;6.30;;
69678;SDS011;56915;52.046;4.854;2023-04-01T07:24:43;13.52;;;5.28;;
69678;SDS011;56915;52.046;4.854;2023-04-01T07:27:12;19.27;;;7.00;;
69678;SDS011;56915;52.046;4.854;2023-04-01T07:29:40;15.77;;;5.90;;
69678;SDS011;56915;52.046;4.854;2023-04-01T07:37:34;20.77;;;6.05;;
69678;SDS011;56915;52.046;4.854;2023-04-01T07:45:35;18.38;;;5.88;;
69678;SDS011;56915;52.046;4.854;2023-04-01T07:48:39;16.60;;;6.40;;
69678;SDS011;56915;52.046;4.854;2023-04-01T07:51:28;17.48;;;5.28;;
69678;SDS011;56915;52.046;4.854;2023-04-01T07:54:13;11.40;;;4.68;;
69678;SDS011;56915;52.046;4.854;2023-04-01T08:05:22;16.92;;;6.70;;
69678;SDS011;56915;52.046;4.854;2023-04-01T08:08:03;12.73;;;5.32;;
69678;SDS011;56915;52.046;4.854;2023-04-01T08:10:37;13.50;;;6.32;;
69678;SDS011;56915;52.046;4.854;2023-04-01T08:13:27;16.73;;;6.53;;
69678;SDS011;56915;52.046;4.854;2023-04-01T08:16:32;12.53;;;4.27;;
69678;SDS011;56915;52.046;4.854;2023-04-01T08:21:32;13.68;;;5.00;;
69678;SDS011;56915;52.046;4.854;2023-04-01T08:24:16;13.57;;;5.60;;
69678;SDS011;56915;52.046;4.854;2023-04-01T08:27:18;7.75;;;3.05;;
69678;SDS011;56915;52.046;4.854;2023-04-01T08:33:30;19.30;;;6.13;;
69678;SDS011;56915;52.046;4.854;2023-04-01T08:35:51;8.48;;;3.95;;
69678;SDS011;56915;52.046;4.854;2023-04-01T08:41:55;14.68;;;4.32;;
69678;SDS011;56915;52.046;4.854;2023-04-01T09:15:57;8.65;;;4.05;;
69678;SDS011;56915;52.046;4.854;2023-04-01T09:18:46;14.90;;;5.75;;
69678;SDS011;56915;52.046;4.854;2023-04-01T09:24:40;9.77;;;4.25;;
69678;SDS011;56915;52.046;4.854;2023-04-01T09:32:58;10.20;;;3.85;;
69678;SDS011;56915;52.046;4.854;2023-04-01T09:35:55;8.80;;;3.70;;
69678;SDS011;56915;52.046;4.854;2023-04-01T09:39:03;9.07;;;3.42;;
69678;SDS011;56915;52.046;4.854;2023-04-01T09:41:45;9.33;;;4.00;;
69678;SDS011;56915;52.046;4.854;2023-04-01T09:47:09;11.20;;;4.57;;
69678;SDS011;56915;52.046;4.854;2023-04-01T09:55:58;7.40;;;3.27;;
69678;SDS011;56915;52.046;4.854;2023-04-01T10:01:16;5.68;;;2.80;;
69678;SDS011;56915;52.046;4.854;2023-04-01T10:24:13;3.53;;;2.30;;
69678;SDS011;56915;52.046;4.854;2023-04-01T10:27:00;4.93;;;2.58;;
69678;SDS011;56915;52.046;4.854;2023-04-01T10:29:45;4.05;;;1.92;;
69678;SDS011;56915;52.046;4.854;2023-04-01T10:35:44;5.53;;;2.10;;
69678;SDS011;56915;52.046;4.854;2023-04-01T11:12:09;6.90;;;3.60;;
69678;SDS011;56915;52.046;4.854;2023-04-01T11:15:20;5.10;;;2.67;;
69678;SDS011;56915;52.046;4.854;2023-04-01T11:24:17;9.63;;;2.72;;
69678;SDS011;56915;52.046;4.854;2023-04-01T11:27:04;5.82;;;3.05;;
69678;SDS011;56915;52.046;4.854;2023-04-01T11:30:05;6.00;;;3.03;;
69678;SDS011;56915;52.046;4.854;2023-04-01T11:38:49;5.20;;;2.58;;
69678;SDS011;56915;52.046;4.854;2023-04-01T11:41:26;5.20;;;2.97;;
69678;SDS011;56915;52.046;4.854;2023-04-01T11:44:21;6.05;;;3.53;;
69678;SDS011;56915;52.046;4.854;2023-04-01T11:50:03;11.70;;;5.60;;
69678;SDS011;56915;52.046;4.854;2023-04-01T12:14:49;7.28;;;4.00;;
69678;SDS011;56915;52.046;4.854;2023-04-01T12:25:52;9.50;;;4.93;;
69678;SDS011;56915;52.046;4.854;2023-04-01T12:28:44;7.85;;;4.07;;
69678;SDS011;56915;52.046;4.854;2023-04-01T12:31:27;7.47;;;4.20;;
69678;SDS011;56915;52.046;4.854;2023-04-01T12:34:13;8.38;;;4.20;;
69678;SDS011;56915;52.046;4.854;2023-04-01T12:37:07;11.15;;;5.40;;
69678;SDS011;56915;52.046;4.854;2023-04-01T12:47:40;9.70;;;4.38;;
69678;SDS011;56915;52.046;4.854;2023-04-01T12:53:22;11.63;;;5.45;;
69678;SDS011;56915;52.046;4.854;2023-04-01T12:55:51;12.48;;;5.53;;
69678;SDS011;56915;52.046;4.854;2023-04-01T13:10:02;8.20;;;3.25;;
69678;SDS011;56915;52.046;4.854;2023-04-01T13:13:24;14.80;;;6.80;;
69678;SDS011;56915;52.046;4.854;2023-04-01T13:23:32;16.27;;;7.25;;
69678;SDS011;56915;52.046;4.854;2023-04-01T13:26:09;18.03;;;7.37;;
69678;SDS011;56915;52.046;4.854;2023-04-01T13:28:47;12.25;;;4.03;;
69678;SDS011;56915;52.046;4.854;2023-04-01T13:31:26;8.93;;;4.00;;
69678;SDS011;56915;52.046;4.854;2023-04-01T13:42:23;19.50;;;7.30;;
69678;SDS011;56915;52.046;4.854;2023-04-01T13:45:01;21.30;;;7.43;;
69678;SDS011;56915;52.046;4.854;2023-04-01T13:58:38;17.77;;;6.45;;
69678;SDS011;56915;52.046;4.854;2023-04-01T14:04:03;15.80;;;6.15;;
69678;SDS011;56915;52.046;4.854;2023-04-01T14:07:29;13.63;;;5.63;;
69678;SDS011;56915;52.046;4.854;2023-04-01T14:09:43;10.32;;;4.88;;
69678;SDS011;56915;52.046;4.854;2023-04-01T14:20:25;10.37;;;4.67;;
69678;SDS011;56915;52.046;4.854;2023-04-01T14:23:13;11.20;;;4.05;;
69678;SDS011;56915;52.046;4.854;2023-04-01T14:31:27;6.22;;;3.40;;
69678;SDS011;56915;52.046;4.854;2023-04-01T14:37:12;7.07;;;3.22;;
69678;SDS011;56915;52.046;4.854;2023-04-01T14:43:21;4.18;;;2.65;;
69678;SDS011;56915;52.046;4.854;2023-04-01T14:45:59;4.82;;;2.72;;
69678;SDS011;56915;52.046;4.854;2023-04-01T14:51:56;6.82;;;3.72;;
69678;SDS011;56915;52.046;4.854;2023-04-01T14:54:36;8.32;;;3.88;;
69678;SDS011;56915;52.046;4.854;2023-04-01T14:57:13;6.63;;;3.50;;
69678;SDS011;56915;52.046;4.854;2023-04-01T14:59:47;9.73;;;3.80;;
69678;SDS011;56915;52.046;4.854;2023-04-01T15:02:36;5.57;;;3.13;;
69678;SDS011;56915;52.046;4.854;2023-04-01T15:05:31;7.85;;;4.15;;
69678;SDS011;56915;52.046;4.854;2023-04-01T15:08:22;9.20;;;4.20;;
69678;SDS011;56915;52.046;4.854;2023-04-01T15:11:11;7.03;;;3.65;;
69678;SDS011;56915;52.046;4.854;2023-04-01T15:13:49;11.68;;;5.90;;
69678;SDS011;56915;52.046;4.854;2023-04-01T15:16:55;10.90;;;5.20;;
69678;SDS011;56915;52.046;4.854;2023-04-01T15:22:47;9.13;;;4.45;;
69678;SDS011;56915;52.046;4.854;2023-04-01T15:28:06;10.68;;;4.88;;
69678;SDS011;56915;52.046;4.854;2023-04-01T15:30:53;8.47;;;4.60;;
69678;SDS011;56915;52.046;4.854;2023-04-01T15:33:32;8.48;;;4.35;;
69678;SDS011;56915;52.046;4.854;2023-04-01T15:39:19;6.72;;;3.95;;
69678;SDS011;56915;52.046;4.854;2023-04-01T15:59:04;10.77;;;5.07;;
69678;SDS011;56915;52.046;4.854;2023-04-01T16:10:44;7.75;;;3.78;;
69678;SDS011;56915;52.046;4.854;2023-04-01T16:22:52;7.28;;;4.15;;
69678;SDS011;56915;52.046;4.854;2023-04-01T16:25:18;9.70;;;4.65;;
69678;SDS011;56915;52.046;4.854;2023-04-01T16:31:06;7.85;;;4.03;;
69678;SDS011;56915;52.046;4.854;2023-04-01T16:33:43;7.05;;;3.55;;
69678;SDS011;56915;52.046;4.854;2023-04-01T16:39:36;7.80;;;3.70;;
69678;SDS011;56915;52.046;4.854;2023-04-01T16:45:19;7.00;;;4.15;;
69678;SDS011;56915;52.046;4.854;2023-04-01T16:48:11;6.40;;;3.47;;
69678;SDS011;56915;52.046;4.854;2023-04-01T16:50:46;4.82;;;3.00;;
69678;SDS011;56915;52.046;4.854;2023-04-01T16:53:31;5.18;;;2.58;;
69678;SDS011;56915;52.046;4.854;2023-04-01T16:56:10;5.13;;;2.97;;
69678;SDS011;56915;52.046;4.854;2023-04-01T16:59:03;6.95;;;3.75;;
69678;SDS011;56915;52.046;4.854;2023-04-01T17:04:39;5.28;;;2.85;;
69678;SDS011;56915;52.046;4.854;2023-04-01T17:07:20;4.25;;;2.83;;
69678;SDS011;56915;52.046;4.854;2023-04-01T17:12:46;5.22;;;2.50;;
69678;SDS011;56915;52.046;4.854;2023-04-01T17:15:46;3.97;;;2.40;;
69678;SDS011;56915;52.046;4.854;2023-04-01T17:21:10;5.38;;;3.08;;
69678;SDS011;56915;52.046;4.854;2023-04-01T17:24:02;5.73;;;2.70;;
69678;SDS011;56915;52.046;4.854;2023-04-01T17:32:40;5.15;;;2.20;;
69678;SDS011;56915;52.046;4.854;2023-04-01T17:35:22;4.70;;;2.80;;
69678;SDS011;56915;52.046;4.854;2023-04-01T17:43:36;3.92;;;2.40;;
69678;SDS011;56915;52.046;4.854;2023-04-01T17:46:29;3.95;;;2.58;;
69678;SDS011;56915;52.046;4.854;2023-04-01T17:49:27;4.68;;;2.70;;
69678;SDS011;56915;52.046;4.854;2023-04-01T17:52:16;4.00;;;2.13;;
69678;SDS011;56915;52.046;4.854;2023-04-01T18:00:38;2.88;;;1.92;;
69678;SDS011;56915;52.046;4.854;2023-04-01T18:05:57;1.63;;;1.27;;
69678;SDS011;56915;52.046;4.854;2023-04-01T18:11:39;2.40;;;1.50;;
69678;SDS011;56915;52.046;4.854;2023-04-01T18:16:54;4.28;;;2.58;;
69678;SDS011;56915;52.046;4.854;2023-04-01T18:22:25;4.38;;;2.90;;
69678;SDS011;56915;52.046;4.854;2023-04-01T18:25:04;3.88;;;2.30;;
69678;SDS011;56915;52.046;4.854;2023-04-01T18:27:49;5.43;;;2.92;;
69678;SDS011;56915;52.046;4.854;2023-04-01T18:30:27;4.85;;;2.90;;
69678;SDS011;56915;52.046;4.854;2023-04-01T18:32:58;4.60;;;3.20;;
69678;SDS011;56915;52.046;4.854;2023-04-01T18:38:27;5.35;;;3.28;;
69678;SDS011;56915;52.046;4.854;2023-04-01T18:41:16;4.43;;;2.90;;
69678;SDS011;56915;52.046;4.854;2023-04-01T18:46:52;4.60;;;3.10;;
69678;SDS011;56915;52.046;4.854;2023-04-01T19:00:21;3.37;;;2.30;;
69678;SDS011;56915;52.046;4.854;2023-04-01T19:03:00;3.75;;;2.70;;
69678;SDS011;56915;52.046;4.854;2023-04-01T19:05:36;5.15;;;3.30;;
69678;SDS011;56915;52.046;4.854;2023-04-01T19:10:46;3.55;;;2.33;;
69678;SDS011;56915;52.046;4.854;2023-04-01T19:16:04;5.15;;;2.90;;
69678;SDS011;56915;52.046;4.854;2023-04-01T19:26:47;3.97;;;2.77;;
69678;SDS011;56915;52.046;4.854;2023-04-01T19:43:18;6.72;;;3.72;;
69678;SDS011;56915;52.046;4.854;2023-04-01T19:45:55;6.10;;;3.42;;
69678;SDS011;56915;52.046;4.854;2023-04-01T19:57:04;6.72;;;3.20;;
69678;SDS011;56915;52.046;4.854;2023-04-01T20:02:38;7.57;;;4.43;;
69678;SDS011;56915;52.046;4.854;2023-04-01T20:08:04;7.80;;;4.17;;
69678;SDS011;56915;52.046;4.854;2023-04-01T20:10:42;8.27;;;4.40;;
69678;SDS011;56915;52.046;4.854;2023-04-01T20:16:12;7.22;;;4.10;;
69678;SDS011;56915;52.046;4.854;2023-04-01T20:18:52;6.30;;;3.13;;
69678;SDS011;56915;52.046;4.854;2023-04-01T20:24:16;5.47;;;3.13;;
69678;SDS011;56915;52.046;4.854;2023-04-01T20:26:53;6.95;;;3.97;;
69678;SDS011;56915;52.046;4.854;2023-04-01T20:35:12;7.80;;;4.30;;
69678;SDS011;56915;52.046;4.854;2023-04-01T20:41:11;5.40;;;3.28;;
69678;SDS011;56915;52.046;4.854;2023-04-01T20:46:48;5.72;;;3.58;;
69678;SDS011;56915;52.046;4.854;2023-04-01T20:54:45;7.35;;;3.72;;
69678;SDS011;56915;52.046;4.854;2023-04-01T21:00:57;6.25;;;3.78;;
69678;SDS011;56915;52.046;4.854;2023-04-01T21:09:02;8.20;;;4.32;;
69678;SDS011;56915;52.046;4.854;2023-04-01T21:20:32;7.85;;;4.05;;
69678;SDS011;56915;52.046;4.854;2023-04-01T21:30:49;6.70;;;3.40;;
69678;SDS011;56915;52.046;4.854;2023-04-01T21:50:07;6.97;;;4.13;;
69678;SDS011;56915;52.046;4.854;2023-04-01T22:03:56;5.95;;;3.03;;
69678;SDS011;56915;52.046;4.854;2023-04-01T22:09:18;8.15;;;3.95;;
69678;SDS011;56915;52.046;4.854;2023-04-01T22:11:56;6.07;;;3.57;;
69678;SDS011;56915;52.046;4.854;2023-04-01T22:14:42;5.65;;;2.95;;
69678;SDS011;56915;52.046;4.854;2023-04-01T22:17:21;9.63;;;5.00;;
69678;SDS011;56915;52.046;4.854;2023-04-01T22:20:37;5.45;;;2.78;;
69678;SDS011;56915;52.046;4.854;2023-04-01T22:23:08;7.15;;;3.40;;
69678;SDS011;56915;52.046;4.854;2023-04-01T22:28:07;5.35;;;3.17;;
69678;SDS011;56915;52.046;4.854;2023-04-01T22:30:39;6.95;;;4.18;;
69678;SDS011;56915;52.046;4.854;2023-04-01T22:33:30;8.35;;;4.43;;
69678;SDS011;56915;52.046;4.854;2023-04-01T22:41:46;6.60;;;3.55;;
69678;SDS011;56915;52.046;4.854;2023-04-01T22:44:27;6.57;;;3.53;;
69678;SDS011;56915;52.046;4.854;2023-04-01T22:52:40;8.43;;;4.53;;
69678;SDS011;56915;52.046;4.854;2023-04-01T22:55:21;8.20;;;4.28;;
69678;SDS011;56915;52.046;4.854;2023-04-01T22:58:05;7.35;;;4.18;;
69678;SDS011;56915;52.046;4.854;2023-04-01T23:00:45;8.00;;;4.63;;
69678;SDS011;56915;52.046;4.854;2023-04-01T23:03:19;6.28;;;3.88;;
69678;SDS011;56915;52.046;4.854;2023-04-01T23:05:52;7.63;;;3.67;;
69678;SDS011;56915;52.046;4.854;2023-04-01T23:13:45;10.80;;;5.32;;
69678;SDS011;56915;52.046;4.854;2023-04-01T23:16:23;7.18;;;4.03;;
69678;SDS011;56915;52.046;4.854;2023-04-01T23:21:29;9.48;;;4.32;;
69678;SDS011;56915;52.046;4.854;2023-04-01T23:24:19;8.25;;;4.53;;
69678;SDS011;56915;52.046;4.854;2023-04-01T23:29:36;8.65;;;4.43;;
69678;SDS011;56915;52.046;4.854;2023-04-01T23:32:13;9.63;;;5.23;;
69678;SDS011;56915;52.046;4.854;2023-04-01T23:34:51;9.48;;;4.78;;
69678;SDS011;56915;52.046;4.854;2023-04-01T23:37:20;7.75;;;4.80;;
69678;SDS011;56915;52.046;4.854;2023-04-01T23:39:48;10.23;;;5.38;;
69678;SDS011;56915;52.046;4.854;2023-04-01T23:45:13;8.33;;;4.33;;
69678;SDS011;56915;52.046;4.854;2023-04-01T23:47:47;8.88;;;4.20;;
69678;SDS011;56915;52.046;4.854;2023-04-01T23:50:17;10.25;;;5.75;;
69678;SDS011;56915;52.046;4.854;2023-04-01T23:52:47;10.32;;;5.43;;
69678;SDS011;56915;52.046;4.854;2023-04-01T23:55:25;8.77;;;5.38;;
